Time;durP1;ratioP1;P1;durP2;ratioP2;P2;SDS_P1;SDS_P2;PMS_P1;PMS_P2;Temp;Humidity;BMP_temperature;BMP_pressure;BME280_temperature;BME280_humidity;BME280_pressure;Samples;Min_cycle;Max_cycle;Signal;HPM_P1;HPM_P2
2023/03/10 00:02:09;;;;;;;18.90;11.45;;;;;;;0.95;79.42;99331.28;7392147;19;20006;-57
2023/03/10 00:04:34;;;;;;;19.60;12.38;;;;;;;0.82;79.49;99328.59;7389984;19;20013;-56
2023/03/10 00:07:00;;;;;;;19.83;11.57;;;;;;;0.88;79.58;99330.84;7389147;19;19987;-56
2023/03/10 00:09:25;;;;;;;17.83;11.57;;;;;;;0.97;79.27;99319.78;7390323;19;20077;-55
2023/03/10 00:11:51;;;;;;;18.25;11.48;;;;;;;1.03;78.95;99315.94;7389810;19;20011;-56
2023/03/10 00:14:16;;;;;;;18.73;11.68;;;;;;;0.98;78.76;99310.13;7390101;19;20002;-56
2023/03/10 00:16:41;;;;;;;17.98;11.50;;;;;;;0.91;79.12;99304.50;7389218;19;20021;-56
2023/03/10 00:19:07;;;;;;;18.80;11.40;;;;;;;0.87;79.37;99298.63;7391497;19;20475;-56
2023/03/10 00:21:33;;;;;;;17.85;11.02;;;;;;;0.82;79.52;99297.25;7391382;19;20459;-56
2023/03/10 00:23:59;;;;;;;18.00;11.55;;;;;;;0.83;79.24;99291.94;7391208;19;20013;-56
2023/03/10 00:26:27;;;;;;;19.20;11.73;;;;;;;0.75;79.52;99294.22;7390510;19;20467;-56
2023/03/10 00:28:54;;;;;;;17.85;11.60;;;;;;;0.84;79.32;99282.31;7390672;19;20007;-56
2023/03/10 00:31:22;;;;;;;18.38;11.70;;;;;;;0.86;78.98;99273.44;7390669;19;20034;-57
2023/03/10 00:33:48;;;;;;;17.88;10.65;;;;;;;0.93;78.91;99274.69;7391178;19;20030;-56
2023/03/10 00:36:19;;;;;;;17.85;10.95;;;;;;;0.85;79.10;99265.69;7390608;19;20011;-54
2023/03/10 00:38:46;;;;;;;19.30;11.77;;;;;;;0.93;79.03;99261.59;7388456;19;20013;-55
2023/03/10 00:41:15;;;;;;;17.70;10.82;;;;;;;0.98;78.70;99257.84;7391019;19;20003;-54
2023/03/10 00:43:41;;;;;;;18.08;10.85;;;;;;;0.93;78.78;99247.72;7389091;19;20007;-54
2023/03/10 00:46:07;;;;;;;18.02;11.18;;;;;;;0.67;79.94;99247.66;7390396;19;20043;-54
2023/03/10 00:48:33;;;;;;;19.63;11.18;;;;;;;0.86;79.63;99246.44;7390239;19;20006;-55
2023/03/10 00:51:05;;;;;;;19.48;11.82;;;;;;;0.88;79.07;99234.94;7390909;19;20017;-55
2023/03/10 00:53:33;;;;;;;18.25;11.05;;;;;;;0.91;78.94;99234.75;7390090;19;20021;-56
2023/03/10 00:56:10;;;;;;;17.13;10.63;;;;;;;0.91;79.08;99208.59;7389434;19;20031;-56
2023/03/10 00:58:36;;;;;;;18.30;11.23;;;;;;;0.86;79.31;99207.22;7389490;19;20010;-55
2023/03/10 01:01:02;;;;;;;16.92;10.30;;;;;;;0.90;79.08;99203.47;7390874;19;20022;-56
2023/03/10 01:03:28;;;;;;;18.58;10.57;;;;;;;0.95;79.06;99209.25;7389722;19;20341;-56
2023/03/10 01:05:54;;;;;;;18.35;11.13;;;;;;;0.93;78.74;99204.09;7394454;19;20009;-55
2023/03/10 01:08:20;;;;;;;17.38;10.77;;;;;;;0.94;78.60;99194.50;7397775;19;20035;-56
2023/03/10 01:10:47;;;;;;;19.40;11.35;;;;;;;1.00;78.56;99194.06;7395318;19;20006;-56
2023/03/10 01:13:14;;;;;;;18.38;11.57;;;;;;;0.93;78.88;99190.19;7397661;19;20062;-56
2023/03/10 01:15:40;;;;;;;18.95;11.35;;;;;;;0.82;79.24;99177.00;7396550;19;19995;-56
2023/03/10 01:18:06;;;;;;;18.25;11.30;;;;;;;0.78;79.42;99176.38;7398166;19;20002;-56
2023/03/10 01:20:33;;;;;;;18.05;11.18;;;;;;;0.79;79.41;99165.00;7395071;19;20427;-56
2023/03/10 01:22:59;;;;;;;18.73;11.10;;;;;;;0.89;78.96;99159.97;7397966;19;20300;-56
2023/03/10 01:25:25;;;;;;;17.15;10.90;;;;;;;0.90;78.86;99154.66;7395925;19;20007;-56
2023/03/10 01:27:51;;;;;;;17.45;10.88;;;;;;;0.85;79.14;99153.28;7397111;19;20360;-56
2023/03/10 01:30:16;;;;;;;18.98;11.50;;;;;;;0.88;78.54;99147.84;7395129;19;19998;-56
2023/03/10 01:32:42;;;;;;;17.13;10.80;;;;;;;0.82;79.02;99145.63;7396081;19;20459;-56
2023/03/10 01:35:08;;;;;;;19.33;11.80;;;;;;;0.86;79.01;99139.25;7395757;19;20003;-56
2023/03/10 01:37:33;;;;;;;17.55;10.77;;;;;;;0.88;78.92;99140.00;7392340;19;20018;-56
2023/03/10 01:40:00;;;;;;;17.98;11.00;;;;;;;0.90;79.02;99127.66;7394353;19;20055;-56
2023/03/10 01:42:26;;;;;;;17.95;10.75;;;;;;;0.85;78.99;99124.53;7396173;19;20356;-56
2023/03/10 01:45:20;;;;;;;18.35;10.88;;;;;;;0.84;79.33;99128.09;7395361;19;20060;-56
2023/03/10 01:47:46;;;;;;;;;;;;;;;0.87;79.42;99120.03;7391304;19;20483;-56
2023/03/10 01:50:17;;;;;;;16.33;9.75;;;;;;;0.86;78.98;99113.13;7393414;19;19914;-56
2023/03/10 01:52:47;;;;;;;17.80;11.00;;;;;;;0.85;79.08;99093.97;7393705;19;19998;-56
2023/03/10 01:55:20;;;;;;;19.88;11.30;;;;;;;0.82;79.29;99094.19;7394466;19;19998;-56
2023/03/10 01:57:51;;;;;;;17.17;10.97;;;;;;;0.81;79.29;99096.94;7391696;19;20069;-56
2023/03/10 02:00:22;;;;;;;18.15;11.05;;;;;;;0.73;79.58;99091.38;7393940;19;19995;-56
2023/03/10 02:03:11;;;;;;;19.65;11.48;;;;;;;0.76;79.37;99084.19;7395868;19;19995;-56
2023/03/10 02:05:58;;;;;;;18.63;10.27;;;;;;;0.87;79.51;99080.84;7395761;19;20005;-56
2023/03/10 02:08:28;;;;;;;17.60;11.32;;;;;;;0.89;78.96;99077.16;7394717;19;20018;-55
2023/03/10 02:10:54;;;;;;;18.25;11.27;;;;;;;0.92;78.77;99066.47;7394085;19;20412;-56
2023/03/10 02:13:19;;;;;;;16.33;9.80;;;;;;;0.93;78.84;99057.69;7393326;19;20530;-55
2023/03/10 02:15:45;;;;;;;17.27;10.20;;;;;;;0.89;78.93;99060.63;7393069;19;20002;-56
2023/03/10 02:18:13;;;;;;;17.08;10.15;;;;;;;0.87;79.08;99058.13;7393529;19;20029;-55
2023/03/10 02:21:00;;;;;;;17.73;11.10;;;;;;;0.85;78.87;99048.72;7395544;19;20400;-55
2023/03/10 02:23:35;;;;;;;18.48;10.68;;;;;;;0.79;79.21;99042.16;7394282;19;20002;-57
2023/03/10 02:26:18;;;;;;;18.35;11.00;;;;;;;0.76;79.52;99041.53;7393538;19;20007;-56
2023/03/10 02:28:45;;;;;;;15.95;9.73;;;;;;;0.82;79.29;99038.47;7392833;19;20002;-56
2023/03/10 02:31:12;;;;;;;17.00;10.15;;;;;;;0.86;79.02;99025.09;7395367;19;20066;-56
2023/03/10 02:33:38;;;;;;;16.98;10.02;;;;;;;0.90;79.00;99025.69;7394724;19;20007;-56
2023/03/10 02:36:15;;;;;;;17.98;10.40;;;;;;;0.88;78.94;99020.59;7394844;19;20006;-56
2023/03/10 02:38:41;;;;;;;17.65;10.25;;;;;;;0.82;79.23;99015.78;7394019;19;20027;-56
2023/03/10 02:41:22;;;;;;;18.05;10.55;;;;;;;0.76;79.75;99012.78;7394367;19;19999;-55
2023/03/10 02:43:48;;;;;;;18.33;10.75;;;;;;;0.72;79.47;99014.78;7394673;19;20010;-54
2023/03/10 02:46:14;;;;;;;17.77;10.82;;;;;;;0.78;79.46;99008.25;7394390;19;20003;-55
2023/03/10 02:48:40;;;;;;;17.75;10.63;;;;;;;0.86;79.15;99004.19;7393657;19;20062;-56
2023/03/10 02:51:12;;;;;;;18.17;10.93;;;;;;;0.82;79.34;98992.25;7394490;19;20481;-56
2023/03/10 02:53:37;;;;;;;17.58;10.63;;;;;;;0.78;79.43;98997.81;7395224;19;20010;-56
2023/03/10 02:56:03;;;;;;;18.80;10.75;;;;;;;0.74;79.53;98988.50;7393196;19;20006;-57
2023/03/10 02:58:30;;;;;;;17.92;10.60;;;;;;;0.77;79.68;98993.53;7394629;19;20011;-56
2023/03/10 03:00:56;;;;;;;16.88;10.80;;;;;;;0.73;79.56;98992.91;7393657;19;20007;-56
2023/03/10 03:03:22;;;;;;;17.20;10.50;;;;;;;0.79;79.33;98986.44;7394906;19;20030;-56
2023/03/10 03:05:48;;;;;;;16.15;10.32;;;;;;;0.85;79.09;98978.97;7393504;19;20035;-56
2023/03/10 03:08:15;;;;;;;18.10;11.38;;;;;;;0.78;79.53;98989.97;7393625;19;19995;-56
2023/03/10 03:10:41;;;;;;;17.15;10.15;;;;;;;0.76;79.62;98987.47;7393009;19;20003;-56
2023/03/10 03:13:07;;;;;;;15.80;9.82;;;;;;;0.69;79.81;98986.22;7394260;19;20475;-56
2023/03/10 03:15:33;;;;;;;18.65;10.27;;;;;;;0.77;79.40;98983.09;7391306;19;20006;-56
2023/03/10 03:17:59;;;;;;;16.65;10.27;;;;;;;0.82;79.46;98973.13;7391218;19;20002;-56
2023/03/10 03:20:26;;;;;;;18.95;10.93;;;;;;;0.84;79.52;98969.47;7392619;19;20310;-56
2023/03/10 03:22:53;;;;;;;16.35;10.13;;;;;;;0.75;79.72;98971.88;7393227;19;20001;-56
2023/03/10 03:25:20;;;;;;;17.17;10.32;;;;;;;0.80;79.70;98961.97;7393156;19;20019;-56
2023/03/10 03:27:48;;;;;;;17.17;10.32;;;;;;;0.72;79.61;98957.28;7391618;19;19995;-56
2023/03/10 03:30:20;;;;;;;16.05;9.95;;;;;;;0.74;79.79;98957.97;7392282;19;20003;-55
2023/03/10 03:32:46;;;;;;;17.08;10.82;;;;;;;0.66;80.37;98966.38;7392831;19;20002;-56
2023/03/10 03:35:18;;;;;;;16.05;10.30;;;;;;;0.74;79.99;98957.16;7390682;19;20487;-56
2023/03/10 03:37:43;;;;;;;17.05;10.18;;;;;;;0.75;79.93;98958.81;7389555;19;20020;-56
2023/03/10 03:40:11;;;;;;;16.95;10.32;;;;;;;0.59;80.65;98962.50;7391397;19;19994;-55
2023/03/10 03:42:41;;;;;;;17.52;10.65;;;;;;;0.65;80.56;98953.41;7392680;19;19999;-55
2023/03/10 03:45:28;;;;;;;18.67;10.13;;;;;;;0.58;81.05;98949.56;7392490;19;20034;-61
2023/03/10 03:47:53;;;;;;;16.42;10.20;;;;;;;0.64;80.47;98946.53;7386166;19;20357;-59
2023/03/10 03:50:19;;;;;;;15.80;10.23;;;;;;;0.61;80.34;98942.34;7392590;19;20138;-60
2023/03/10 03:52:45;;;;;;;17.08;10.00;;;;;;;0.69;80.57;98939.19;7391277;19;19998;-59
2023/03/10 03:55:13;;;;;;;14.77;9.80;;;;;;;0.68;80.18;98947.97;7390777;19;19991;-57
2023/03/10 03:57:39;;;;;;;16.13;10.25;;;;;;;0.63;80.32;98940.47;7392681;19;20050;-59
2023/03/10 04:00:07;;;;;;;15.38;9.60;;;;;;;0.67;80.60;98938.44;7391347;19;20006;-59
2023/03/10 04:02:34;;;;;;;16.52;10.05;;;;;;;0.64;80.76;98939.53;7391525;19;20077;-59
2023/03/10 04:04:59;;;;;;;16.98;9.98;;;;;;;0.56;80.79;98946.22;7391480;19;20011;-59
2023/03/10 04:07:25;;;;;;;16.05;9.38;;;;;;;0.55;81.30;98945.38;7388115;19;19998;-60
2023/03/10 04:09:51;;;;;;;16.25;10.07;;;;;;;0.57;81.20;98943.50;7391301;19;20035;-60
2023/03/10 04:12:16;;;;;;;16.50;10.35;;;;;;;0.49;81.49;98952.81;7390331;19;20003;-60
2023/03/10 04:14:42;;;;;;;16.67;10.13;;;;;;;0.37;81.83;98942.28;7390552;19;20450;-59
2023/03/10 04:17:07;;;;;;;16.02;9.70;;;;;;;0.50;81.52;98944.03;7387974;19;19998;-60
2023/03/10 04:19:33;;;;;;;16.95;10.18;;;;;;;0.43;81.80;98951.47;7392029;19;20007;-59
2023/03/10 04:21:58;;;;;;;16.40;9.88;;;;;;;0.51;81.41;98950.94;7391985;19;19998;-60
2023/03/10 04:24:24;;;;;;;16.90;10.25;;;;;;;0.46;81.89;98953.03;7389127;19;20502;-59
2023/03/10 04:26:49;;;;;;;17.05;9.85;;;;;;;0.46;81.81;98946.03;7388242;19;19991;-59
2023/03/10 04:29:15;;;;;;;18.00;10.57;;;;;;;0.48;81.68;98949.38;7388368;19;20010;-60
2023/03/10 04:31:40;;;;;;;17.05;10.30;;;;;;;0.51;81.90;98954.38;7390868;19;20466;-60
2023/03/10 04:34:06;;;;;;;18.70;10.90;;;;;;;0.49;81.83;98956.28;7391098;19;19999;-61
2023/03/10 04:36:31;;;;;;;18.05;10.77;;;;;;;0.53;81.55;98960.34;7389460;19;20459;-61
2023/03/10 04:38:57;;;;;;;15.82;9.57;;;;;;;0.42;81.73;98955.03;7390592;19;20006;-61
2023/03/10 04:41:23;;;;;;;17.52;10.55;;;;;;;0.36;82.30;98952.81;7390485;19;19998;-61
2023/03/10 04:43:48;;;;;;;16.75;9.93;;;;;;;0.44;82.05;98956.59;7390581;19;20017;-61
2023/03/10 04:46:14;;;;;;;17.52;10.90;;;;;;;0.34;82.27;98962.56;7388951;19;20032;-61
2023/03/10 04:48:40;;;;;;;17.90;10.65;;;;;;;0.41;82.41;98959.41;7390263;19;20007;-61
2023/03/10 04:51:08;;;;;;;18.60;10.52;;;;;;;0.53;81.79;98964.72;7386559;19;19990;-60
2023/03/10 04:53:35;;;;;;;17.20;10.30;;;;;;;0.44;82.10;98963.56;7386826;19;20010;-61
2023/03/10 04:56:03;;;;;;;17.73;11.20;;;;;;;0.42;82.39;98960.25;7385844;19;19998;-61
2023/03/10 04:58:29;;;;;;;17.30;10.20;;;;;;;0.40;82.19;98959.50;7388600;19;20002;-60
2023/03/10 05:00:55;;;;;;;19.83;11.98;;;;;;;0.42;82.18;98955.03;7387946;19;19994;-61
2023/03/10 05:03:20;;;;;;;17.52;10.93;;;;;;;0.42;82.15;98960.25;7390089;19;20475;-60
2023/03/10 05:05:46;;;;;;;16.20;10.13;;;;;;;0.54;81.94;98966.41;7389164;19;20011;-60
2023/03/10 05:08:11;;;;;;;17.63;10.85;;;;;;;0.52;81.67;98966.50;7390606;19;20003;-61
2023/03/10 05:10:42;;;;;;;16.73;10.32;;;;;;;0.55;81.65;98963.66;7388097;19;19987;-60
2023/03/10 05:13:11;;;;;;;18.13;11.05;;;;;;;0.50;81.92;98967.56;7390426;19;19999;-61
2023/03/10 05:15:38;;;;;;;19.80;11.77;;;;;;;0.45;81.93;98975.72;7387446;19;20006;-60
2023/03/10 05:18:04;;;;;;;20.40;12.20;;;;;;;0.40;81.86;98978.66;7387859;19;19999;-60
2023/03/10 05:20:29;;;;;;;19.40;12.02;;;;;;;0.44;81.96;98982.72;7389159;19;20474;-61
2023/03/10 05:22:55;;;;;;;20.92;12.45;;;;;;;0.47;81.63;98975.59;7389801;19;20003;-60
2023/03/10 05:25:21;;;;;;;20.08;12.25;;;;;;;0.48;81.89;98972.91;7388538;19;20031;-60
2023/03/10 05:27:46;;;;;;;20.92;13.23;;;;;;;0.52;81.56;98979.56;7389427;19;19994;-60
2023/03/10 05:30:14;;;;;;;21.05;13.43;;;;;;;0.49;81.79;98968.50;7389261;19;19998;-58
2023/03/10 05:32:39;;;;;;;20.52;13.35;;;;;;;0.50;81.67;98976.22;7389816;19;20075;-58
2023/03/10 05:35:05;;;;;;;21.63;13.45;;;;;;;0.41;81.88;98977.69;7388764;19;20025;-59
2023/03/10 05:37:35;;;;;;;23.38;14.70;;;;;;;0.38;82.33;98982.28;7387239;19;19991;-59
2023/03/10 05:40:00;;;;;;;22.08;14.05;;;;;;;0.34;82.39;98976.44;7389849;19;19990;-59
2023/03/10 05:42:26;;;;;;;22.23;14.20;;;;;;;0.35;82.27;98988.56;7389061;19;20331;-59
2023/03/10 05:44:51;;;;;;;22.75;14.20;;;;;;;0.46;82.02;98987.81;7386810;19;20360;-59
2023/03/10 05:47:18;;;;;;;22.95;14.68;;;;;;;0.52;81.80;98991.78;7386695;19;19991;-59
2023/03/10 05:49:44;;;;;;;23.50;14.93;;;;;;;0.51;81.91;98987.50;7389325;19;20013;-60
2023/03/10 05:52:09;;;;;;;23.98;15.10;;;;;;;0.54;81.29;98985.50;7390836;19;20489;-62
2023/03/10 05:54:35;;;;;;;23.23;14.90;;;;;;;0.56;81.49;98988.88;7393620;19;20283;-59
2023/03/10 05:57:01;;;;;;;24.48;15.20;;;;;;;0.51;81.73;98990.94;7393565;19;20356;-62
2023/03/10 05:59:26;;;;;;;23.00;14.68;;;;;;;0.49;81.78;98992.00;7394711;19;20002;-60
2023/03/10 06:01:52;;;;;;;22.35;14.70;;;;;;;0.50;81.81;98988.44;7396112;19;20030;-59
2023/03/10 06:04:17;;;;;;;26.65;16.65;;;;;;;0.55;81.79;98989.78;7395697;19;19999;-60
2023/03/10 06:06:43;;;;;;;24.35;15.40;;;;;;;0.52;81.68;98983.94;7393261;19;20036;-60
2023/03/10 06:09:08;;;;;;;22.98;14.90;;;;;;;0.44;81.94;98987.94;7395781;19;20026;-59
2023/03/10 06:11:34;;;;;;;24.40;14.80;;;;;;;0.52;81.87;98990.03;7395072;19;20005;-60
2023/03/10 06:14:00;;;;;;;23.75;15.02;;;;;;;0.57;81.17;98987.09;7396099;19;19991;-60
2023/03/10 06:16:25;;;;;;;22.83;15.00;;;;;;;0.49;81.63;98985.00;7393398;19;20064;-60
2023/03/10 06:18:54;;;;;;;20.45;13.35;;;;;;;0.50;81.96;98985.84;7395445;19;20006;-60
2023/03/10 06:21:20;;;;;;;21.90;13.98;;;;;;;0.41;82.18;98990.75;7395002;19;20077;-59
2023/03/10 06:23:45;;;;;;;22.30;14.18;;;;;;;0.40;82.02;98990.84;7394600;19;20013;-60
2023/03/10 06:26:13;;;;;;;19.92;13.10;;;;;;;0.42;81.97;98988.97;7391219;19;20450;-59
2023/03/10 06:28:41;;;;;;;22.45;14.05;;;;;;;0.64;81.20;98991.78;7393405;19;20018;-59
2023/03/10 06:31:19;;;;;;;21.45;13.40;;;;;;;0.51;81.91;98988.31;7394795;19;20015;-59
2023/03/10 06:33:44;;;;;;;23.30;13.98;;;;;;;0.54;81.46;98990.75;7394796;19;20007;-59
2023/03/10 06:36:12;;;;;;;20.23;12.82;;;;;;;0.54;81.56;98984.69;7392991;19;20010;-59
2023/03/10 06:38:38;;;;;;;20.48;13.15;;;;;;;0.62;81.34;98982.38;7394562;19;19999;-58
2023/03/10 06:41:04;;;;;;;19.83;11.90;;;;;;;0.60;81.01;98985.09;7395063;19;20007;-60
2023/03/10 06:43:31;;;;;;;20.48;12.93;;;;;;;0.62;81.09;98988.44;7393591;19;20010;-60
2023/03/10 06:45:56;;;;;;;20.83;12.32;;;;;;;0.57;81.36;98987.91;7392405;19;20010;-60
2023/03/10 06:48:22;;;;;;;21.40;12.98;;;;;;;0.70;80.88;98987.88;7395000;19;20014;-60
2023/03/10 06:50:48;;;;;;;20.48;12.93;;;;;;;0.72;80.56;98987.81;7394246;19;20054;-60
2023/03/10 06:53:19;;;;;;;20.73;13.02;;;;;;;0.64;80.49;98986.56;7392620;19;20070;-59
2023/03/10 06:55:55;;;;;;;19.60;12.98;;;;;;;0.58;81.28;98989.59;7392255;19;20451;-59
2023/03/10 06:58:21;;;;;;;20.23;13.27;;;;;;;0.60;81.30;98994.72;7393844;19;19994;-59
2023/03/10 07:00:46;;;;;;;23.83;13.90;;;;;;;0.67;80.69;99003.78;7394085;19;20021;-59
2023/03/10 07:03:13;;;;;;;20.13;12.90;;;;;;;0.60;81.18;99005.16;7392711;19;20482;-59
2023/03/10 07:05:39;;;;;;;20.98;13.00;;;;;;;0.74;80.79;99004.19;7390638;19;19999;-59
2023/03/10 07:08:04;;;;;;;21.38;13.43;;;;;;;0.67;80.69;99007.25;7391895;19;20079;-59
2023/03/10 07:10:30;;;;;;;21.10;14.00;;;;;;;0.73;80.65;99013.81;7391311;19;19999;-60
2023/03/10 07:12:57;;;;;;;21.00;13.10;;;;;;;0.75;80.58;99016.31;7393476;19;19999;-60
2023/03/10 07:15:24;;;;;;;21.38;13.25;;;;;;;0.79;80.27;99020.41;7392120;19;20019;-59
2023/03/10 07:17:50;;;;;;;20.67;13.43;;;;;;;0.71;80.54;99023.56;7391515;19;20480;-59
2023/03/10 07:20:17;;;;;;;21.95;14.43;;;;;;;0.73;80.51;99023.44;7393626;19;20002;-59
2023/03/10 07:22:42;;;;;;;22.95;14.05;;;;;;;0.72;80.52;99027.84;7394029;19;20009;-58
2023/03/10 07:25:08;;;;;;;23.05;14.57;;;;;;;0.61;80.82;99032.97;7392620;19;20007;-59
2023/03/10 07:27:34;;;;;;;23.63;13.98;;;;;;;0.48;81.32;99025.13;7392709;19;19998;-59
2023/03/10 07:29:59;;;;;;;21.17;13.45;;;;;;;0.57;81.11;99027.09;7392784;19;20113;-59
2023/03/10 07:32:24;;;;;;;22.08;13.82;;;;;;;0.68;81.04;99026.38;7392363;19;19994;-60
2023/03/10 07:34:50;;;;;;;21.65;13.88;;;;;;;0.58;80.94;99028.78;7392804;19;20454;-60
2023/03/10 07:37:16;;;;;;;23.10;14.30;;;;;;;0.59;81.29;99030.44;7391884;19;19998;-60
2023/03/10 07:39:42;;;;;;;22.13;13.90;;;;;;;0.72;80.86;99035.69;7392582;19;20002;-59
2023/03/10 07:42:07;;;;;;;22.30;14.73;;;;;;;0.67;80.74;99040.34;7392147;19;19995;-60
2023/03/10 07:44:33;;;;;;;22.85;14.60;;;;;;;0.64;81.13;99040.59;7391929;19;20006;-59
2023/03/10 07:46:58;;;;;;;21.33;14.18;;;;;;;0.63;81.29;99045.00;7390378;19;20005;-60
2023/03/10 07:49:24;;;;;;;24.45;15.35;;;;;;;0.57;81.84;99050.63;7390462;19;20707;-59
2023/03/10 07:51:49;;;;;;;21.95;14.43;;;;;;;0.69;81.51;99048.94;7392161;19;20018;-60
2023/03/10 07:54:15;;;;;;;24.85;15.18;;;;;;;0.62;81.55;99053.75;7392731;19;20552;-60
2023/03/10 07:56:40;;;;;;;24.48;15.60;;;;;;;0.63;81.41;99055.44;7389930;19;20526;-60
2023/03/10 07:59:05;;;;;;;25.02;15.20;;;;;;;0.67;81.32;99071.72;7392767;19;20002;-59
2023/03/10 08:01:31;;;;;;;22.58;14.93;;;;;;;0.61;81.59;99069.53;7392327;19;20009;-59
2023/03/10 08:03:56;;;;;;;24.38;16.08;;;;;;;0.56;81.86;99080.31;7389914;19;20006;-58
2023/03/10 08:06:25;;;;;;;24.10;15.20;;;;;;;0.68;81.74;99079.47;7390617;19;19999;-59
2023/03/10 08:08:51;;;;;;;25.48;16.70;;;;;;;0.65;81.44;99081.47;7391962;19;20085;-60
2023/03/10 08:11:17;;;;;;;23.98;15.73;;;;;;;0.59;81.43;99080.09;7391988;19;20003;-60
2023/03/10 08:13:46;;;;;;;23.52;14.82;;;;;;;0.65;81.60;99081.47;7391533;19;20312;-60
2023/03/10 08:16:13;;;;;;;26.10;16.10;;;;;;;0.60;81.54;99084.38;7388526;19;19998;-60
2023/03/10 08:18:39;;;;;;;23.05;15.32;;;;;;;0.62;81.48;99087.72;7392437;19;20006;-60
2023/03/10 08:21:05;;;;;;;24.33;15.45;;;;;;;0.67;81.74;99090.88;7392153;19;20009;-60
2023/03/10 08:23:31;;;;;;;23.90;15.52;;;;;;;0.59;82.13;99089.69;7390817;19;20477;-60
2023/03/10 08:26:02;;;;;;;25.30;16.25;;;;;;;0.58;82.32;99088.03;7389136;19;20006;-60
2023/03/10 08:28:29;;;;;;;24.70;15.65;;;;;;;0.60;81.68;99087.00;7391364;19;20002;-60
2023/03/10 08:30:57;;;;;;;24.92;15.65;;;;;;;0.59;82.02;99095.75;7389474;19;20438;-59
2023/03/10 08:33:23;;;;;;;24.52;15.32;;;;;;;0.59;81.93;99094.94;7391486;19;20073;-60
2023/03/10 08:35:48;;;;;;;24.27;15.88;;;;;;;0.62;82.00;99089.50;7390502;19;20040;-60
2023/03/10 08:38:14;;;;;;;22.92;15.00;;;;;;;0.71;81.76;99085.41;7390232;19;20022;-60
2023/03/10 08:40:39;;;;;;;25.10;16.15;;;;;;;0.72;81.10;99084.50;7391734;19;20069;-59
2023/03/10 08:43:05;;;;;;;23.85;15.38;;;;;;;0.75;81.17;99094.72;7391178;19;20026;-61
2023/03/10 08:45:31;;;;;;;24.60;15.55;;;;;;;0.69;81.38;99096.81;7390321;19;20003;-59
2023/03/10 08:47:57;;;;;;;24.10;15.48;;;;;;;0.71;81.33;99095.88;7388665;19;20344;-59
2023/03/10 08:50:22;;;;;;;24.08;15.70;;;;;;;0.72;81.50;99098.41;7391512;19;20379;-58
2023/03/10 08:52:47;;;;;;;22.92;14.68;;;;;;;0.69;81.38;99104.66;7390831;19;20377;-58
2023/03/10 08:55:13;;;;;;;25.33;15.43;;;;;;;0.68;81.84;99100.38;7390181;19;19994;-58
2023/03/10 08:57:39;;;;;;;23.15;14.82;;;;;;;0.79;81.02;99102.28;7388408;19;19995;-58
2023/03/10 09:00:06;;;;;;;25.05;15.45;;;;;;;0.83;81.12;99095.88;7390145;19;20466;-59
2023/03/10 09:02:38;;;;;;;25.95;15.95;;;;;;;0.89;80.77;99098.06;7390903;19;19999;-59
2023/03/10 09:05:03;;;;;;;24.67;15.10;;;;;;;0.94;80.66;99092.53;7389919;19;20013;-59
2023/03/10 09:07:29;;;;;;;23.48;15.10;;;;;;;1.02;80.44;99087.63;7388325;19;20007;-59
2023/03/10 09:09:54;;;;;;;26.48;16.17;;;;;;;1.05;80.10;99091.78;7390430;19;20074;-59
2023/03/10 09:12:20;;;;;;;22.60;14.68;;;;;;;1.14;80.41;99085.91;7390559;19;20022;-58
2023/03/10 09:14:46;;;;;;;22.23;14.55;;;;;;;1.26;79.53;99089.44;7389465;19;20010;-59
2023/03/10 09:17:11;;;;;;;22.13;14.40;;;;;;;1.31;79.36;99079.50;7386312;19;19999;-59
2023/03/10 09:19:37;;;;;;;23.13;14.20;;;;;;;1.37;78.83;99094.75;7390690;19;20010;-61
2023/03/10 09:22:03;;;;;;;23.75;14.85;;;;;;;1.40;78.90;99095.38;7390271;19;20055;-61
2023/03/10 09:24:28;;;;;;;21.50;14.13;;;;;;;1.34;78.54;99094.97;7389564;19;20006;-59
2023/03/10 09:26:55;;;;;;;21.30;13.73;;;;;;;1.46;78.42;99095.88;7392798;19;20009;-59
2023/03/10 09:29:20;;;;;;;21.25;13.63;;;;;;;1.48;78.57;99104.47;7397177;19;20083;-60
2023/03/10 09:31:47;;;;;;;22.23;14.00;;;;;;;1.62;77.89;99118.22;7397516;19;20018;-60
2023/03/10 09:34:19;;;;;;;21.15;13.80;;;;;;;1.69;77.83;99102.09;7397777;19;20006;-58
2023/03/10 09:36:44;;;;;;;21.40;13.73;;;;;;;1.71;77.32;99100.22;7392021;19;20560;-59
2023/03/10 09:39:10;;;;;;;19.83;12.90;;;;;;;1.80;77.20;99110.00;7396741;19;19991;-60
2023/03/10 09:41:41;;;;;;;22.40;13.82;;;;;;;1.85;76.81;99105.25;7394938;19;20018;-59
2023/03/10 09:44:21;;;;;;;20.20;12.48;;;;;;;1.86;76.75;99107.78;7396571;19;20076;-59
2023/03/10 09:46:54;;;;;;;22.25;13.93;;;;;;;1.87;76.51;99109.44;7393462;19;20002;-59
2023/03/10 09:49:32;;;;;;;20.85;13.00;;;;;;;1.92;76.47;99106.50;7397155;19;20014;-59
2023/03/10 09:51:57;;;;;;;22.35;13.25;;;;;;;1.78;77.25;99112.75;7396605;19;19999;-59
2023/03/10 09:54:42;;;;;;;20.38;13.43;;;;;;;1.89;76.89;99118.03;7396793;19;20001;-59
2023/03/10 09:57:16;;;;;;;;;;;;;;;1.75;76.94;99123.44;7395139;19;20014;-59
2023/03/10 09:59:44;;;;;;;18.88;12.35;;;;;;;1.82;76.89;99126.44;7396229;19;19915;-59
2023/03/10 10:02:23;;;;;;;21.23;13.77;;;;;;;1.97;76.09;99121.84;7396084;19;20003;-60
2023/03/10 10:04:55;;;;;;;20.55;13.55;;;;;;;1.80;76.97;99128.31;7396236;19;20482;-59
2023/03/10 10:07:25;;;;;;;20.30;13.07;;;;;;;1.73;76.98;99133.16;7393176;19;20351;-59
2023/03/10 10:10:12;;;;;;;20.33;12.23;;;;;;;1.75;76.91;99135.69;7396151;19;20443;-58
2023/03/10 10:12:38;;;;;;;18.45;12.07;;;;;;;1.91;76.44;99136.25;7395632;19;19998;-60
2023/03/10 10:15:16;;;;;;;19.83;13.25;;;;;;;1.89;76.37;99135.50;7394238;19;20062;-60
2023/03/10 10:18:11;;;;;;;21.63;13.93;;;;;;;1.89;76.46;99144.22;7393589;19;20351;-59
2023/03/10 10:20:58;;;;;;;18.27;12.13;;;;;;;1.86;76.05;99154.09;7395654;19;20034;-58
2023/03/10 10:23:42;;;;;;;19.48;12.85;;;;;;;1.80;76.58;99147.47;7395795;19;19999;-58
2023/03/10 10:26:14;;;;;;;18.23;11.93;;;;;;;1.86;76.54;99143.59;7394404;19;19998;-58
2023/03/10 10:28:54;;;;;;;19.30;12.93;;;;;;;1.80;76.41;99146.66;7394861;19;20009;-58
2023/03/10 10:31:26;;;;;;;18.98;12.38;;;;;;;1.83;76.26;99136.81;7394885;19;19994;-58
2023/03/10 10:33:59;;;;;;;19.60;12.45;;;;;;;2.06;75.65;99126.44;7394940;19;20026;-59
2023/03/10 10:36:31;;;;;;;20.92;12.77;;;;;;;2.20;74.83;99128.91;7393167;19;20374;-58
2023/03/10 10:38:57;;;;;;;18.35;12.18;;;;;;;2.13;75.18;99119.81;7392115;19;20498;-58
2023/03/10 10:41:26;;;;;;;17.85;11.93;;;;;;;2.28;74.70;99112.59;7393427;19;19991;-60
2023/03/10 10:43:55;;;;;;;17.92;11.88;;;;;;;2.43;74.30;99124.56;7394248;19;20478;-58
2023/03/10 10:46:28;;;;;;;18.15;12.05;;;;;;;2.54;73.65;99121.97;7392316;19;20327;-59
2023/03/10 10:49:01;;;;;;;17.27;11.13;;;;;;;2.55;73.79;99133.28;7394596;19;20002;-59
2023/03/10 10:51:30;;;;;;;17.98;12.15;;;;;;;2.55;73.29;99136.75;7395059;19;20482;-58
2023/03/10 10:53:57;;;;;;;17.85;11.88;;;;;;;2.74;73.20;99135.38;7394596;19;19999;-58
2023/03/10 10:56:27;;;;;;;17.63;12.52;;;;;;;2.62;73.23;99132.72;7391116;19;20009;-58
2023/03/10 10:59:03;;;;;;;17.33;11.48;;;;;;;2.64;73.22;99141.28;7394716;19;20019;-59
2023/03/10 11:01:53;;;;;;;16.52;11.43;;;;;;;2.73;73.05;99136.28;7394378;19;19998;-59
2023/03/10 11:04:19;;;;;;;18.10;11.63;;;;;;;2.74;72.83;99143.22;7392920;19;19995;-59
2023/03/10 11:06:45;;;;;;;17.80;12.43;;;;;;;2.64;73.49;99143.09;7392941;19;19998;-59
2023/03/10 11:09:17;;;;;;;17.50;11.43;;;;;;;2.53;73.96;99135.19;7392964;19;20079;-60
2023/03/10 11:12:00;;;;;;;18.50;12.15;;;;;;;2.64;73.45;99135.22;7393779;19;20003;-58
2023/03/10 11:14:44;;;;;;;17.50;12.53;;;;;;;2.70;73.10;99131.31;7392752;19;19999;-59
2023/03/10 11:17:15;;;;;;;19.38;12.75;;;;;;;2.55;73.48;99134.13;7391777;19;20280;-59
2023/03/10 11:19:58;;;;;;;20.75;13.07;;;;;;;2.62;72.91;99135.34;7392018;19;20065;-59
2023/03/10 11:22:41;;;;;;;19.88;12.82;;;;;;;2.65;72.58;99136.88;7393947;19;20006;-59
2023/03/10 11:25:17;;;;;;;19.27;13.17;;;;;;;2.39;73.58;99150.16;7392322;19;19995;-58
2023/03/10 11:27:53;;;;;;;19.92;13.35;;;;;;;2.43;73.33;99149.91;7391258;19;20247;-58
2023/03/10 11:31:05;;;;;;;18.98;12.85;;;;;;;2.29;73.79;99141.31;7393565;19;20078;-58
2023/03/10 11:33:43;;;;;;;20.02;13.20;;;;;;;2.32;73.85;99142.88;7391941;19;20055;-60